createdAt,value
2018-06-01T00:05:21.126Z,20.54
2018-06-01T00:11:26.245Z,20.33
2018-06-01T00:17:30.601Z,20.22
2018-06-01T00:23:34.949Z,20.36
2018-06-01T00:29:40.099Z,20.01
2018-06-01T00:35:44.435Z,19.93
2018-06-01T00:41:48.757Z,20.15
2018-06-01T00:47:53.985Z,19.95
2018-06-01T00:53:58.324Z,19.78
2018-06-01T01:00:02.692Z,19.96
2018-06-01T01:06:07.040Z,19.66
2018-06-01T01:12:11.403Z,19.69
2018-06-01T01:18:15.805Z,19.43
2018-06-01T01:24:20.188Z,19.70
2018-06-01T01:30:24.687Z,19.79
2018-06-01T01:36:29.404Z,19.52
2018-06-01T01:42:34.514Z,19.71
2018-06-01T01:48:38.868Z,19.72
2018-06-01T01:54:43.285Z,19.73
2018-06-01T02:00:47.640Z,19.74
2018-06-01T02:06:52.185Z,19.59
2018-06-01T02:12:56.602Z,19.42
2018-06-01T02:19:00.967Z,19.81
2018-06-01T02:25:05.339Z,19.88
2018-06-01T02:31:09.697Z,19.98
2018-06-01T02:37:14.822Z,20.01
2018-06-01T02:43:19.180Z,19.89
2018-06-01T02:49:23.544Z,19.70
2018-06-01T02:55:28.669Z,19.64
2018-06-01T03:01:33.026Z,19.83
2018-06-01T03:07:37.368Z,19.82
2018-06-01T03:13:42.488Z,19.78
2018-06-01T03:19:46.865Z,19.93
2018-06-01T03:25:51.515Z,19.80
2018-06-01T03:31:56.750Z,19.78
2018-06-01T03:38:01.985Z,19.95
2018-06-01T03:44:07.156Z,19.93
2018-06-01T03:50:11.500Z,20.13
2018-06-01T03:56:15.858Z,20.31
2018-06-01T04:02:21.238Z,20.20
2018-06-01T04:08:25.749Z,20.46
2018-06-01T04:14:30.103Z,20.32
2018-06-01T04:20:34.452Z,20.34
2018-06-01T04:26:38.817Z,20.23
2018-06-01T04:32:43.164Z,20.39
2018-06-01T04:38:47.512Z,20.49
2018-06-01T04:44:52.659Z,20.84
2018-06-01T04:50:57.040Z,21.08
2018-06-01T04:57:01.397Z,21.22
2018-06-01T05:03:05.761Z,21.72
2018-06-01T05:09:10.117Z,21.94
2018-06-01T05:15:14.492Z,22.11
2018-06-01T05:21:18.865Z,22.23
2018-06-01T05:27:24.135Z,22.32
2018-06-01T05:33:29.217Z,22.54
2018-06-01T05:39:33.969Z,22.99
2018-06-01T05:45:38.315Z,23.07
2018-06-01T05:51:42.693Z,23.29
2018-06-01T05:57:47.069Z,23.11
2018-06-01T06:03:51.497Z,23.50
2018-06-01T06:09:55.930Z,23.76
2018-06-01T06:16:00.289Z,23.40
2018-06-01T06:22:04.640Z,23.48
2018-06-01T06:28:08.960Z,23.60
2018-06-01T06:34:13.341Z,24.00
2018-06-01T06:40:17.697Z,24.99
2018-06-01T06:46:22.337Z,25.55
2018-06-01T06:52:26.650Z,25.76
2018-06-01T06:58:31.053Z,25.56
2018-06-01T07:04:35.401Z,26.11
2018-06-01T07:10:39.819Z,25.94
2018-06-01T07:16:44.143Z,26.03
2018-06-01T07:22:48.548Z,26.56
2018-06-01T07:28:52.906Z,26.23
2018-06-01T07:34:57.269Z,26.56
2018-06-01T07:41:01.671Z,26.69
2018-06-01T07:47:06.040Z,26.82
2018-06-01T07:53:10.394Z,26.75
2018-06-01T07:59:14.742Z,26.65
2018-06-01T08:05:19.949Z,26.90
2018-06-01T08:11:24.318Z,27.04
2018-06-01T08:17:29.454Z,27.23
2018-06-01T08:23:33.804Z,27.56
2018-06-01T08:29:38.156Z,27.78
2018-06-01T08:35:43.289Z,28.21
2018-06-01T08:41:47.636Z,28.69
2018-06-01T08:47:52.024Z,28.42
2018-06-01T08:53:56.409Z,28.74
2018-06-01T09:00:00.767Z,28.33
2018-06-01T09:06:05.136Z,27.75
2018-06-01T09:12:10.258Z,27.22
2018-06-01T09:18:14.617Z,26.68
2018-06-01T09:24:19.112Z,26.09
2018-06-01T09:30:24.308Z,25.88
2018-06-01T09:36:28.747Z,25.23
2018-06-01T09:42:33.887Z,24.78
2018-06-01T09:48:38.233Z,24.74
2018-06-01T09:54:42.593Z,24.43
2018-06-01T10:00:52.399Z,23.83
2018-06-01T10:06:57.550Z,23.23
2018-06-01T10:13:01.902Z,22.93
2018-06-01T10:19:06.245Z,22.81
2018-06-01T10:25:10.745Z,22.66
2018-06-01T10:31:15.083Z,22.63
2018-06-01T10:37:20.166Z,22.17
2018-06-01T10:43:24.555Z,22.04
2018-06-01T10:49:28.986Z,22.01
2018-06-01T10:55:33.339Z,21.85
2018-06-01T11:01:37.719Z,21.79
2018-06-01T11:07:42.044Z,21.77
2018-06-01T11:13:47.192Z,21.60
2018-06-01T11:19:51.496Z,21.44
2018-06-01T11:25:55.857Z,21.43
2018-06-01T11:32:00.227Z,21.86
2018-06-01T11:38:04.568Z,21.93
2018-06-01T11:44:09.039Z,21.98
2018-06-01T11:50:13.492Z,21.81
2018-06-01T11:56:18.786Z,22.90
2018-06-01T12:02:23.153Z,24.35
2018-06-01T12:08:28.296Z,25.26
2018-06-01T12:14:32.682Z,25.64
2018-06-01T12:20:37.068Z,25.58
2018-06-01T12:26:41.561Z,25.46
2018-06-01T12:32:46.024Z,26.06
2018-06-01T12:38:51.249Z,26.67
2018-06-01T12:44:56.320Z,27.62
2018-06-01T12:51:00.712Z,28.56
2018-06-01T12:57:05.835Z,28.89
2018-06-01T13:03:10.181Z,29.63
2018-06-01T13:09:15.343Z,30.50
2018-06-01T13:15:20.705Z,31.50
2018-06-01T13:21:25.034Z,30.29
2018-06-01T13:27:29.417Z,29.83
2018-06-01T13:33:33.771Z,31.61
2018-06-01T13:39:38.128Z,31.54
2018-06-01T13:45:42.496Z,31.72
2018-06-01T13:51:46.844Z,31.55
2018-06-01T13:57:51.254Z,31.13
2018-06-01T14:03:55.593Z,30.52
2018-06-01T14:09:59.947Z,30.88
2018-06-01T14:16:05.061Z,31.49
2018-06-01T14:22:09.411Z,30.84
2018-06-01T14:28:14.519Z,30.93
2018-06-01T14:34:19.625Z,29.58
2018-06-01T14:40:24.017Z,29.92
2018-06-01T14:46:29.138Z,29.36
2018-06-01T14:52:33.584Z,29.46
2018-06-01T14:58:37.922Z,30.27
2018-06-01T15:04:43.287Z,31.19
2018-06-01T15:10:47.658Z,31.35
2018-06-01T15:16:52.416Z,31.83
2018-06-01T15:22:56.816Z,31.91
2018-06-01T15:29:01.175Z,31.86
2018-06-01T15:35:05.947Z,30.87
2018-06-01T15:41:10.277Z,30.94
2018-06-01T15:47:15.438Z,31.17
2018-06-01T15:53:19.811Z,31.03
2018-06-01T15:59:24.964Z,30.07
2018-06-01T16:05:29.385Z,30.15
2018-06-01T16:11:33.729Z,29.80
2018-06-01T16:17:38.067Z,29.78
2018-06-01T16:23:43.177Z,29.78
2018-06-01T16:29:48.298Z,30.29
2018-06-01T16:35:52.638Z,31.57
2018-06-01T16:41:57.754Z,34.45
2018-06-01T16:48:02.105Z,34.87
2018-06-01T16:54:07.222Z,34.47
2018-06-01T17:00:11.565Z,32.72
2018-06-01T17:06:16.672Z,31.76
2018-06-01T17:12:21.329Z,32.32
2018-06-01T17:18:25.650Z,31.47
2018-06-01T17:24:30.083Z,29.92
2018-06-01T17:30:35.199Z,28.90
2018-06-01T17:36:39.541Z,28.07
2018-06-01T17:42:43.886Z,27.75
2018-06-01T17:48:48.256Z,28.35
2018-06-01T17:54:52.634Z,28.16
2018-06-01T18:00:56.986Z,28.25
2018-06-01T18:07:01.303Z,27.61
2018-06-01T18:13:05.703Z,27.29
2018-06-01T18:19:10.818Z,28.29
2018-06-01T18:25:15.161Z,29.82
2018-06-01T18:31:20.269Z,30.32
2018-06-01T18:37:25.424Z,28.24
2018-06-01T18:43:29.769Z,26.84
2018-06-01T18:49:34.128Z,25.99
2018-06-01T18:55:38.481Z,24.91
2018-06-01T19:01:42.845Z,24.16
2018-06-01T19:07:47.960Z,24.18
2018-06-01T19:13:52.421Z,23.53
2018-06-01T19:19:57.553Z,23.28
2018-06-01T19:26:01.898Z,22.74
2018-06-01T19:32:06.250Z,22.65
2018-06-01T19:38:10.688Z,22.34
2018-06-01T19:44:15.063Z,22.20
2018-06-01T19:50:19.455Z,22.01
2018-06-01T19:56:23.802Z,22.24
2018-06-01T20:02:28.151Z,21.74
2018-06-01T20:08:32.497Z,21.46
2018-06-01T20:14:36.837Z,21.69
2018-06-01T20:20:41.185Z,21.47
2018-06-01T20:26:45.908Z,21.63
2018-06-01T20:32:50.255Z,21.78
2018-06-01T20:38:54.604Z,21.49
2018-06-01T20:44:58.952Z,21.59
2018-06-01T20:51:04.073Z,21.50
2018-06-01T20:57:08.420Z,21.47
2018-06-01T21:03:12.765Z,21.48
2018-06-01T21:09:17.109Z,21.27
2018-06-01T21:15:21.462Z,21.28
2018-06-01T21:21:26.587Z,21.08
2018-06-01T21:27:31.760Z,21.24
2018-06-01T21:33:36.113Z,21.22
2018-06-01T21:39:41.240Z,21.21
2018-06-01T21:45:45.549Z,21.11
2018-06-01T21:51:50.795Z,20.98
2018-06-01T21:57:55.188Z,20.86
2018-06-01T22:03:59.539Z,20.81
2018-06-01T22:10:03.888Z,20.52
2018-06-01T22:16:09.027Z,20.55
2018-06-01T22:22:14.303Z,20.62
2018-06-01T22:28:18.679Z,20.60
2018-06-01T22:34:23.956Z,20.70
2018-06-01T22:40:29.073Z,20.61
2018-06-01T22:46:33.383Z,20.48
2018-06-01T22:52:38.765Z,20.45
2018-06-01T22:58:43.349Z,20.68
2018-06-01T23:04:47.684Z,20.60
2018-06-01T23:10:52.791Z,20.59
2018-06-01T23:16:57.094Z,20.61
2018-06-01T23:23:01.967Z,20.64
2018-06-01T23:29:06.310Z,20.45
2018-06-01T23:35:11.417Z,20.65
2018-06-01T23:41:15.764Z,20.60
2018-06-01T23:47:20.119Z,20.36
2018-06-01T23:53:24.488Z,20.32
2018-06-01T23:59:28.853Z,20.42
